createdAt,value
2022-08-25T00:02:00.514Z,21.89
2022-08-25T00:04:30.531Z,21.88
2022-08-25T00:07:02.777Z,21.87
2022-08-25T00:09:32.823Z,21.88
2022-08-25T00:12:01.314Z,21.91
2022-08-25T00:14:33.496Z,21.86
2022-08-25T00:17:01.893Z,21.87
2022-08-25T00:19:32.816Z,21.85
2022-08-25T00:22:00.785Z,21.89
2022-08-25T00:24:28.994Z,21.86
2022-08-25T00:26:59.089Z,21.87
2022-08-25T00:29:28.836Z,21.86
2022-08-25T00:31:58.621Z,21.82
2022-08-25T00:34:29.778Z,21.84
2022-08-25T00:36:57.414Z,21.81
2022-08-25T00:39:25.480Z,21.78
2022-08-25T00:41:56.542Z,21.79
2022-08-25T00:44:25.821Z,21.73
2022-08-25T00:46:55.460Z,21.78
2022-08-25T00:49:29.209Z,21.77
2022-08-25T00:52:01.320Z,21.76
2022-08-25T00:54:32.380Z,21.75
2022-08-25T00:57:01.259Z,21.72
2022-08-25T00:59:30.089Z,21.74
2022-08-25T01:01:59.236Z,21.69
2022-08-25T01:04:28.676Z,21.70
2022-08-25T01:06:57.796Z,21.76
2022-08-25T01:09:26.124Z,21.75
2022-08-25T01:11:53.811Z,21.74
2022-08-25T01:14:24.342Z,21.74
2022-08-25T01:16:54.577Z,21.68
2022-08-25T01:19:22.235Z,21.61
2022-08-25T01:21:53.198Z,21.56
2022-08-25T01:24:26.322Z,21.56
2022-08-25T01:26:53.995Z,21.55
2022-08-25T01:29:21.640Z,21.48
2022-08-25T01:31:50.210Z,21.43
2022-08-25T01:34:20.378Z,21.40
2022-08-25T01:36:48.562Z,21.36
2022-08-25T01:39:18.291Z,21.35
2022-08-25T01:41:58.736Z,21.34
2022-08-25T01:44:26.779Z,21.31
2022-08-25T01:46:55.223Z,21.35
2022-08-25T01:49:23.289Z,21.35
2022-08-25T01:51:55.943Z,21.30
2022-08-25T01:54:25.027Z,21.30
2022-08-25T01:56:52.892Z,21.23
2022-08-25T01:59:24.283Z,21.21
2022-08-25T02:01:59.903Z,21.18
2022-08-25T02:04:28.365Z,21.14
2022-08-25T02:06:56.287Z,21.12
2022-08-25T02:09:25.621Z,21.13
2022-08-25T02:11:53.657Z,21.13
2022-08-25T02:14:21.301Z,21.06
2022-08-25T02:16:51.369Z,21.04
2022-08-25T02:19:21.153Z,21.00
2022-08-25T02:21:48.753Z,20.99
2022-08-25T02:24:17.434Z,20.92
2022-08-25T02:26:46.844Z,20.92
2022-08-25T02:29:14.774Z,20.87
2022-08-25T02:31:42.697Z,20.82
2022-08-25T02:34:12.186Z,20.81
2022-08-25T02:36:40.225Z,20.77
2022-08-25T02:39:09.364Z,20.77
2022-08-25T02:41:38.038Z,20.77
2022-08-25T02:44:08.596Z,20.80
2022-08-25T02:46:37.788Z,20.79
2022-08-25T02:49:06.033Z,20.78
2022-08-25T02:51:34.570Z,20.75
2022-08-25T02:54:03.708Z,20.71
2022-08-25T02:56:32.189Z,20.69
2022-08-25T02:59:00.866Z,20.66
2022-08-25T03:01:31.621Z,20.62
2022-08-25T03:03:59.525Z,20.57
2022-08-25T03:06:27.467Z,20.55
2022-08-25T03:08:55.678Z,20.55
2022-08-25T03:11:24.973Z,20.55
2022-08-25T03:13:53.483Z,20.55
2022-08-25T03:16:21.389Z,20.51
2022-08-25T03:18:50.438Z,20.54
2022-08-25T03:21:18.851Z,20.54
2022-08-25T03:23:46.581Z,20.57
2022-08-25T03:26:14.541Z,20.52
2022-08-25T03:28:42.518Z,20.47
2022-08-25T03:31:10.701Z,20.44
2022-08-25T03:33:38.316Z,20.49
2022-08-25T03:36:09.568Z,20.46
2022-08-25T03:38:37.500Z,20.49
2022-08-25T03:41:16.249Z,20.49
2022-08-25T03:43:44.275Z,20.46
2022-08-25T03:46:18.131Z,20.48
2022-08-25T03:48:46.396Z,20.54
2022-08-25T03:51:19.791Z,20.54
2022-08-25T03:53:47.942Z,20.59
2022-08-25T03:56:15.774Z,20.64
2022-08-25T03:58:43.525Z,20.67
2022-08-25T04:01:12.150Z,20.71
2022-08-25T04:03:39.954Z,20.74
2022-08-25T04:06:08.263Z,20.75
2022-08-25T04:08:38.294Z,20.80
2022-08-25T04:11:07.313Z,20.88
2022-08-25T04:13:36.527Z,20.92
2022-08-25T04:16:05.177Z,20.96
2022-08-25T04:18:32.987Z,21.00
2022-08-25T04:21:05.756Z,21.02
2022-08-25T04:23:33.664Z,21.05
2022-08-25T04:26:07.901Z,21.04
2022-08-25T04:28:35.620Z,21.04
2022-08-25T04:31:06.610Z,21.01
2022-08-25T04:33:34.646Z,21.09
2022-08-25T04:36:02.409Z,21.17
2022-08-25T04:38:30.171Z,21.23
2022-08-25T04:41:00.898Z,21.28
2022-08-25T04:43:30.691Z,21.31
2022-08-25T04:45:58.859Z,21.29
2022-08-25T04:48:27.158Z,21.30
2022-08-25T04:50:54.806Z,21.32
2022-08-25T04:53:22.487Z,21.34
2022-08-25T04:55:50.290Z,21.37
2022-08-25T04:58:18.278Z,21.40
2022-08-25T05:00:47.302Z,21.48
2022-08-25T05:03:15.141Z,21.61
2022-08-25T05:05:42.946Z,21.71
2022-08-25T05:08:10.626Z,21.81
2022-08-25T05:10:40.480Z,21.87
2022-08-25T05:13:10.030Z,21.96
2022-08-25T05:15:37.962Z,22.03
2022-08-25T05:18:07.498Z,22.08
2022-08-25T05:20:36.528Z,22.11
2022-08-25T05:23:05.501Z,22.18
2022-08-25T05:25:36.325Z,22.23
2022-08-25T05:28:04.179Z,22.12
2022-08-25T05:30:31.935Z,22.07
2022-08-25T05:32:59.753Z,21.99
2022-08-25T05:35:29.063Z,21.90
2022-08-25T05:37:56.864Z,21.88
2022-08-25T05:40:25.740Z,21.90
2022-08-25T05:42:53.363Z,21.93
2022-08-25T05:45:21.544Z,21.99
2022-08-25T05:47:50.003Z,22.05
2022-08-25T05:50:18.221Z,22.11
2022-08-25T05:52:47.515Z,22.17
2022-08-25T05:55:15.612Z,22.38
2022-08-25T05:57:43.371Z,22.60
2022-08-25T06:00:12.062Z,22.83
2022-08-25T06:02:40.802Z,23.06
2022-08-25T06:05:09.205Z,23.26
2022-08-25T06:07:37.247Z,23.40
2022-08-25T06:10:08.455Z,23.52
2022-08-25T06:12:36.406Z,23.65
2022-08-25T06:15:05.373Z,23.83
2022-08-25T06:17:33.610Z,23.94
2022-08-25T06:20:01.644Z,24.04
2022-08-25T06:22:30.682Z,24.13
2022-08-25T06:24:58.681Z,24.25
2022-08-25T06:27:27.784Z,24.29
2022-08-25T06:29:56.073Z,24.41
2022-08-25T06:32:23.873Z,24.54
2022-08-25T06:34:51.818Z,24.53
2022-08-25T06:37:23.278Z,24.56
2022-08-25T06:39:52.878Z,24.65
2022-08-25T06:42:20.670Z,24.77
2022-08-25T06:44:49.746Z,24.81
2022-08-25T06:47:18.901Z,24.84
2022-08-25T06:49:46.999Z,24.93
2022-08-25T06:52:15.515Z,25.02
2022-08-25T06:54:44.296Z,25.12
2022-08-25T06:57:14.816Z,25.19
2022-08-25T06:59:43.283Z,25.26
2022-08-25T07:02:12.665Z,25.40
2022-08-25T07:04:45.469Z,25.45
2022-08-25T07:07:13.540Z,25.55
2022-08-25T07:09:41.456Z,25.67
2022-08-25T07:12:09.248Z,25.68
2022-08-25T07:14:37.427Z,25.83
2022-08-25T07:17:12.526Z,25.86
2022-08-25T07:19:42.054Z,25.90
2022-08-25T07:22:09.733Z,25.94
2022-08-25T07:24:37.577Z,26.02
2022-08-25T07:27:05.634Z,26.22
2022-08-25T07:29:33.856Z,26.33
2022-08-25T07:32:02.541Z,26.43
2022-08-25T07:34:31.412Z,26.62
2022-08-25T07:37:00.809Z,26.77
2022-08-25T07:39:29.115Z,26.87
2022-08-25T07:41:57.467Z,26.88
2022-08-25T07:44:28.163Z,26.91
2022-08-25T07:46:56.378Z,27.08
2022-08-25T07:49:26.831Z,27.10
2022-08-25T07:52:06.641Z,27.13
2022-08-25T07:54:37.771Z,27.20
2022-08-25T07:57:08.040Z,27.30
2022-08-25T07:59:40.231Z,27.37
2022-08-25T08:02:17.855Z,27.47
2022-08-25T08:04:48.256Z,27.59
2022-08-25T08:07:18.953Z,27.73
2022-08-25T08:09:46.953Z,27.79
2022-08-25T08:12:17.085Z,27.95
2022-08-25T08:14:46.642Z,28.02
2022-08-25T08:17:14.498Z,28.13
2022-08-25T08:19:45.374Z,28.24
2022-08-25T08:22:14.699Z,28.35
2022-08-25T08:24:54.491Z,28.47
2022-08-25T08:27:23.424Z,28.48
2022-08-25T08:29:51.175Z,28.54
2022-08-25T08:32:18.892Z,28.59
2022-08-25T08:34:47.148Z,28.71
2022-08-25T08:37:20.269Z,28.93
2022-08-25T08:39:52.094Z,28.95
2022-08-25T08:42:38.158Z,29.02
2022-08-25T08:45:24.448Z,29.01
2022-08-25T08:48:12.343Z,29.17
2022-08-25T08:50:52.535Z,29.25
2022-08-25T08:53:28.136Z,29.30
2022-08-25T08:56:08.986Z,29.46
2022-08-25T08:58:43.912Z,29.65
2022-08-25T09:01:17.358Z,29.80
2022-08-25T09:03:55.201Z,29.82
2022-08-25T09:06:28.782Z,29.96
2022-08-25T09:08:59.541Z,29.88
2022-08-25T09:11:45.391Z,29.91
2022-08-25T09:14:30.405Z,29.89
2022-08-25T09:17:03.594Z,29.91
2022-08-25T09:19:44.062Z,30.03
2022-08-25T09:22:35.164Z,30.04
2022-08-25T09:25:11.756Z,30.09
2022-08-25T09:27:47.293Z,30.16
2022-08-25T09:30:17.386Z,30.22
2022-08-25T09:32:52.611Z,30.37
2022-08-25T09:35:24.494Z,30.32
2022-08-25T09:37:57.200Z,30.36
2022-08-25T09:40:27.176Z,30.49
2022-08-25T09:42:58.846Z,30.40
2022-08-25T09:45:40.114Z,30.35
2022-08-25T09:48:22.927Z,30.34
2022-08-25T09:50:55.420Z,30.48
2022-08-25T09:53:26.927Z,30.54
2022-08-25T09:56:00.591Z,30.58
2022-08-25T09:58:30.162Z,30.65
2022-08-25T10:01:03.687Z,30.57
2022-08-25T10:03:36.493Z,30.63
2022-08-25T10:06:13.235Z,30.75
2022-08-25T10:08:55.855Z,30.63
2022-08-25T10:11:34.326Z,30.72
2022-08-25T10:14:15.367Z,30.76
2022-08-25T10:16:46.916Z,30.74
2022-08-25T10:19:24.347Z,30.82
2022-08-25T10:22:07.640Z,30.89
2022-08-25T10:24:36.144Z,30.95
2022-08-25T10:27:18.614Z,30.87
2022-08-25T10:30:07.331Z,30.88
2022-08-25T10:33:05.648Z,30.89
2022-08-25T10:35:48.012Z,30.99
2022-08-25T10:38:37.081Z,31.05
2022-08-25T10:41:22.225Z,31.15
2022-08-25T10:43:58.641Z,31.18
2022-08-25T10:46:36.599Z,31.21
2022-08-25T10:49:11.223Z,31.35
2022-08-25T10:51:53.531Z,31.30
2022-08-25T10:54:38.851Z,31.39
2022-08-25T10:57:17.436Z,31.37
2022-08-25T10:59:57.264Z,31.34
2022-08-25T11:02:44.751Z,31.37
2022-08-25T11:05:24.545Z,31.35
2022-08-25T11:07:58.791Z,31.34
2022-08-25T11:10:35.455Z,31.43
2022-08-25T11:13:11.164Z,31.46
2022-08-25T11:16:13.303Z,31.46
2022-08-25T11:18:43.296Z,31.43
2022-08-25T11:21:16.137Z,31.44
2022-08-25T11:23:50.870Z,31.44
2022-08-25T11:26:28.886Z,31.38
2022-08-25T11:29:04.719Z,31.42
2022-08-25T11:31:38.930Z,31.48
2022-08-25T11:34:11.847Z,31.34
2022-08-25T11:36:42.176Z,31.34
2022-08-25T11:39:21.259Z,31.40
2022-08-25T11:42:04.630Z,31.46
2022-08-25T11:44:51.880Z,31.47
2022-08-25T11:47:47.857Z,31.40
2022-08-25T11:50:36.427Z,31.45
2022-08-25T11:53:26.540Z,31.38
2022-08-25T11:55:56.635Z,31.37
2022-08-25T11:58:40.774Z,31.31
2022-08-25T12:01:12.208Z,31.11
2022-08-25T12:03:50.823Z,31.12
2022-08-25T12:06:26.745Z,31.02
2022-08-25T12:09:21.749Z,31.09
2022-08-25T12:11:52.851Z,31.15
2022-08-25T12:14:45.666Z,31.08
2022-08-25T12:17:36.711Z,31.03
2022-08-25T12:20:05.408Z,31.00
2022-08-25T12:22:57.295Z,30.89
2022-08-25T12:25:38.671Z,30.91
2022-08-25T12:28:16.975Z,30.88
2022-08-25T12:30:55.165Z,30.82
2022-08-25T12:33:34.828Z,30.92
2022-08-25T12:36:05.110Z,30.80
2022-08-25T12:38:42.468Z,30.73
2022-08-25T12:41:14.650Z,30.60
2022-08-25T12:43:45.245Z,30.69
2022-08-25T12:46:36.985Z,30.71
2022-08-25T12:49:11.958Z,30.73
2022-08-25T12:51:53.094Z,30.71
2022-08-25T12:54:25.109Z,30.73
2022-08-25T12:56:56.350Z,30.75
2022-08-25T12:59:35.219Z,30.82
2022-08-25T13:02:35.816Z,30.75
2022-08-25T13:05:33.491Z,30.68
2022-08-25T13:08:27.052Z,30.65
2022-08-25T13:11:09.310Z,30.64
2022-08-25T13:13:56.616Z,30.55
2022-08-25T13:16:29.418Z,30.46
2022-08-25T13:18:58.806Z,30.46
2022-08-25T13:21:30.570Z,30.43
2022-08-25T13:24:04.711Z,30.38
2022-08-25T13:26:39.215Z,30.38
2022-08-25T13:29:20.409Z,30.29
2022-08-25T13:31:54.137Z,30.29
2022-08-25T13:34:30.416Z,30.33
2022-08-25T13:37:07.471Z,30.28
2022-08-25T13:39:55.835Z,30.26
2022-08-25T13:42:28.769Z,30.15
2022-08-25T13:44:57.080Z,30.14
2022-08-25T13:47:44.961Z,30.10
2022-08-25T13:50:20.998Z,30.12
2022-08-25T13:52:54.651Z,29.99
2022-08-25T13:55:27.762Z,29.97
2022-08-25T13:57:59.250Z,29.94
2022-08-25T14:00:32.423Z,29.97
2022-08-25T14:03:08.734Z,30.00
2022-08-25T14:05:44.166Z,30.03
2022-08-25T14:08:31.995Z,30.02
2022-08-25T14:11:14.633Z,30.03
2022-08-25T14:13:45.342Z,30.01
2022-08-25T14:16:19.160Z,29.96
2022-08-25T14:18:49.210Z,29.95
2022-08-25T14:21:17.643Z,29.88
2022-08-25T14:23:46.999Z,29.88
2022-08-25T14:26:14.692Z,29.76
2022-08-25T14:28:42.390Z,29.81
2022-08-25T14:31:15.134Z,29.79
2022-08-25T14:33:49.903Z,29.72
2022-08-25T14:36:20.797Z,29.71
2022-08-25T14:38:54.844Z,29.67
2022-08-25T14:41:23.492Z,29.67
2022-08-25T14:43:51.854Z,29.63
2022-08-25T14:46:23.387Z,29.55
2022-08-25T14:48:55.350Z,29.51
2022-08-25T14:51:24.189Z,29.45
2022-08-25T14:53:54.260Z,29.37
2022-08-25T14:56:22.182Z,29.30
2022-08-25T14:58:54.207Z,29.28
2022-08-25T15:01:28.831Z,29.21
2022-08-25T15:04:03.649Z,29.16
2022-08-25T15:06:32.120Z,29.05
2022-08-25T15:08:59.892Z,29.05
2022-08-25T15:11:28.600Z,29.03
2022-08-25T15:13:56.872Z,29.01
2022-08-25T15:16:33.973Z,28.97
2022-08-25T15:19:06.593Z,28.94
2022-08-25T15:21:35.808Z,28.83
2022-08-25T15:24:04.285Z,28.69
2022-08-25T15:26:34.356Z,28.61
2022-08-25T15:29:02.060Z,28.52
2022-08-25T15:31:31.570Z,28.49
2022-08-25T15:33:59.562Z,28.45
2022-08-25T15:36:27.883Z,28.33
2022-08-25T15:38:55.873Z,28.24
2022-08-25T15:41:27.811Z,28.14
2022-08-25T15:43:55.636Z,28.06
2022-08-25T15:46:26.873Z,27.98
2022-08-25T15:51:29.211Z,27.86
2022-08-25T15:53:57.611Z,27.80
2022-08-25T15:56:26.750Z,27.74
2022-08-25T15:58:54.998Z,27.69
2022-08-25T16:01:25.638Z,27.68
2022-08-25T16:03:53.587Z,27.59
2022-08-25T16:06:24.340Z,27.52
2022-08-25T16:08:53.021Z,27.44
2022-08-25T16:11:24.750Z,27.33
2022-08-25T16:13:53.474Z,27.32
2022-08-25T16:16:22.945Z,27.30
2022-08-25T16:18:52.370Z,27.26
2022-08-25T16:21:25.637Z,27.18
2022-08-25T16:23:59.899Z,27.11
2022-08-25T16:26:30.498Z,27.07
2022-08-25T16:28:58.233Z,26.98
2022-08-25T16:31:26.319Z,26.88
2022-08-25T16:33:57.660Z,26.84
2022-08-25T16:36:28.986Z,26.75
2022-08-25T16:38:57.450Z,26.64
2022-08-25T16:41:26.963Z,26.56
2022-08-25T16:43:55.552Z,26.51
2022-08-25T16:46:24.172Z,26.47
2022-08-25T16:48:51.830Z,26.36
2022-08-25T16:51:22.721Z,26.23
2022-08-25T16:53:58.795Z,25.93
2022-08-25T16:56:27.555Z,25.68
2022-08-25T16:58:58.114Z,25.55
2022-08-25T17:01:29.659Z,25.46
2022-08-25T17:03:58.583Z,25.46
2022-08-25T17:06:28.337Z,25.50
2022-08-25T17:08:57.873Z,25.54
2022-08-25T17:11:29.624Z,25.62
2022-08-25T17:14:00.320Z,25.62
2022-08-25T17:16:33.262Z,25.63
2022-08-25T17:19:07.290Z,25.64
2022-08-25T17:21:41.357Z,25.52
2022-08-25T17:24:14.956Z,25.44
2022-08-25T17:26:43.831Z,25.42
2022-08-25T17:29:12.121Z,25.39
2022-08-25T17:31:40.393Z,25.37
2022-08-25T17:34:10.663Z,25.19
2022-08-25T17:36:39.954Z,25.01
2022-08-25T17:39:09.626Z,25.02
2022-08-25T17:41:39.539Z,24.91
2022-08-25T17:44:08.473Z,24.76
2022-08-25T17:46:39.155Z,24.61
2022-08-25T17:49:12.162Z,24.53
2022-08-25T17:51:39.829Z,24.45
2022-08-25T17:54:08.038Z,24.39
2022-08-25T17:56:36.252Z,24.35
2022-08-25T17:59:05.363Z,24.33
2022-08-25T18:01:35.278Z,24.27
2022-08-25T18:04:17.136Z,24.25
2022-08-25T18:06:46.523Z,24.15
2022-08-25T18:09:14.590Z,23.98
2022-08-25T18:11:42.653Z,23.84
2022-08-25T18:14:11.798Z,23.75
2022-08-25T18:16:40.598Z,23.65
2022-08-25T18:19:11.173Z,23.43
2022-08-25T18:21:39.049Z,23.31
2022-08-25T18:24:07.747Z,23.27
2022-08-25T18:26:35.955Z,23.20
2022-08-25T18:29:04.693Z,23.16
2022-08-25T18:31:33.986Z,23.12
2022-08-25T18:34:04.345Z,22.96
2022-08-25T18:36:32.884Z,22.88
2022-08-25T18:39:06.766Z,22.86
2022-08-25T18:41:37.065Z,22.86
2022-08-25T18:44:06.060Z,22.75
2022-08-25T18:46:36.531Z,22.72
2022-08-25T18:49:05.021Z,22.54
2022-08-25T18:51:33.355Z,22.38
2022-08-25T18:54:01.557Z,22.26
2022-08-25T18:56:29.858Z,22.28
2022-08-25T18:58:57.913Z,22.28
2022-08-25T19:01:25.979Z,22.32
2022-08-25T19:03:55.108Z,22.40
2022-08-25T19:06:22.940Z,22.42
2022-08-25T19:08:51.203Z,22.47
2022-08-25T19:11:22.305Z,22.48
2022-08-25T19:13:50.592Z,22.44
2022-08-25T19:16:29.676Z,22.38
2022-08-25T19:18:58.863Z,22.47
2022-08-25T19:21:26.559Z,22.48
2022-08-25T19:23:54.393Z,22.48
2022-08-25T19:26:22.047Z,22.51
2022-08-25T19:28:49.898Z,22.47
2022-08-25T19:31:19.268Z,22.53
2022-08-25T19:33:47.204Z,22.65
2022-08-25T19:36:17.815Z,22.75
2022-08-25T19:38:49.031Z,22.87
2022-08-25T19:41:20.963Z,22.99
2022-08-25T19:43:56.336Z,23.10
2022-08-25T19:46:32.274Z,23.21
2022-08-25T19:49:07.075Z,23.25
2022-08-25T19:51:38.623Z,23.23
2022-08-25T19:54:09.241Z,23.24
2022-08-25T19:56:43.810Z,23.33
2022-08-25T19:59:24.283Z,23.42
2022-08-25T20:01:52.029Z,23.44
2022-08-25T20:04:19.958Z,23.41
2022-08-25T20:06:49.599Z,23.46
2022-08-25T20:09:35.807Z,23.50
2022-08-25T20:12:06.220Z,23.53
2022-08-25T20:14:35.020Z,23.49
2022-08-25T20:17:04.313Z,23.51
2022-08-25T20:19:42.663Z,23.49
2022-08-25T20:22:18.190Z,23.47
2022-08-25T20:24:47.082Z,23.48
2022-08-25T20:27:14.841Z,23.52
2022-08-25T20:29:44.646Z,23.56
2022-08-25T20:32:12.843Z,23.55
2022-08-25T20:34:41.127Z,23.61
2022-08-25T20:37:09.559Z,23.65
2022-08-25T20:39:39.772Z,23.65
2022-08-25T20:42:08.255Z,23.68
2022-08-25T20:44:41.819Z,23.69
2022-08-25T20:47:11.003Z,23.72
2022-08-25T20:49:39.295Z,23.72
2022-08-25T20:52:08.000Z,23.65
2022-08-25T20:54:36.295Z,23.69
2022-08-25T20:57:05.529Z,23.74
2022-08-25T20:59:36.000Z,23.73
2022-08-25T21:02:03.976Z,23.70
2022-08-25T21:04:31.718Z,23.66
2022-08-25T21:07:00.057Z,23.64
2022-08-25T21:09:28.712Z,23.56
2022-08-25T21:11:58.320Z,23.51
2022-08-25T21:14:28.320Z,23.46
2022-08-25T21:16:57.077Z,23.46
2022-08-25T21:19:33.984Z,23.44
2022-08-25T21:22:02.563Z,23.51
2022-08-25T21:24:30.545Z,23.48
2022-08-25T21:26:58.695Z,23.48
2022-08-25T21:29:29.308Z,23.46
2022-08-25T21:31:57.099Z,23.52
2022-08-25T21:34:25.668Z,23.53
2022-08-25T21:36:57.292Z,23.58
2022-08-25T21:39:25.622Z,23.58
2022-08-25T21:41:54.451Z,23.56
2022-08-25T21:44:22.619Z,23.58
2022-08-25T21:46:54.225Z,23.62
2022-08-25T21:49:23.519Z,23.63
2022-08-25T21:52:00.497Z,23.62
2022-08-25T21:54:29.741Z,23.57
2022-08-25T21:56:59.341Z,23.57
2022-08-25T21:59:28.428Z,23.54
2022-08-25T22:02:00.408Z,23.53
2022-08-25T22:04:28.378Z,23.49
2022-08-25T22:06:57.193Z,23.49
2022-08-25T22:09:28.339Z,23.43
2022-08-25T22:11:56.298Z,23.44
2022-08-25T22:14:26.233Z,23.42
2022-08-25T22:16:54.499Z,23.38
2022-08-25T22:19:24.701Z,23.40
2022-08-25T22:21:54.155Z,23.39
2022-08-25T22:24:22.129Z,23.34
2022-08-25T22:26:50.169Z,23.37
2022-08-25T22:29:24.817Z,23.33
2022-08-25T22:31:53.440Z,23.38
2022-08-25T22:34:30.737Z,23.32
2022-08-25T22:37:02.115Z,23.29
2022-08-25T22:39:34.288Z,23.30
2022-08-25T22:42:02.199Z,23.29
2022-08-25T22:44:30.307Z,23.22
2022-08-25T22:46:57.967Z,23.21
2022-08-25T22:49:28.548Z,23.17
2022-08-25T22:51:56.367Z,23.13
2022-08-25T22:54:27.145Z,23.08
2022-08-25T22:56:54.789Z,23.09
2022-08-25T22:59:22.689Z,23.03
2022-08-25T23:01:50.810Z,22.95
2022-08-25T23:04:19.159Z,22.89
2022-08-25T23:06:48.249Z,22.81
2022-08-25T23:09:16.486Z,22.77
2022-08-25T23:11:47.385Z,22.73
2022-08-25T23:14:19.673Z,22.69
2022-08-25T23:16:47.538Z,22.67
2022-08-25T23:19:16.993Z,22.66
2022-08-25T23:21:45.207Z,22.61
2022-08-25T23:24:29.126Z,22.66
2022-08-25T23:27:01.128Z,22.67
2022-08-25T23:29:30.294Z,22.67
2022-08-25T23:31:58.708Z,22.65
2022-08-25T23:34:27.370Z,22.63
2022-08-25T23:36:56.380Z,22.62
2022-08-25T23:39:24.693Z,22.60
2022-08-25T23:41:52.897Z,22.59
2022-08-25T23:44:22.912Z,22.52
2022-08-25T23:46:53.193Z,22.51
2022-08-25T23:49:22.972Z,22.50
2022-08-25T23:51:52.895Z,22.48
2022-08-25T23:54:21.066Z,22.47
2022-08-25T23:56:51.780Z,22.42
2022-08-25T23:59:24.170Z,22.37
